sensor_id;sensor_type;location;lat;lon;timestamp;P1;durP1;ratioP1;P2;durP2;ratioP2
68888;SDS011;55930;47.412;8.790;2023-11-22T00:00:54;8.50;;;4.07;;
68888;SDS011;55930;47.412;8.790;2023-11-22T00:04:15;5.97;;;4.03;;
68888;SDS011;55930;47.412;8.790;2023-11-22T00:07:35;7.60;;;4.50;;
68888;SDS011;55930;47.412;8.790;2023-11-22T00:10:57;7.18;;;4.32;;
68888;SDS011;55930;47.412;8.790;2023-11-22T00:14:19;5.82;;;4.25;;
68888;SDS011;55930;47.412;8.790;2023-11-22T00:17:40;6.53;;;4.70;;
68888;SDS011;55930;47.412;8.790;2023-11-22T00:21:00;7.63;;;5.03;;
68888;SDS011;55930;47.412;8.790;2023-11-22T00:24:20;8.80;;;5.40;;
68888;SDS011;55930;47.412;8.790;2023-11-22T00:27:41;7.90;;;4.97;;
68888;SDS011;55930;47.412;8.790;2023-11-22T00:31:02;7.87;;;5.00;;
68888;SDS011;55930;47.412;8.790;2023-11-22T00:34:22;9.83;;;5.60;;
68888;SDS011;55930;47.412;8.790;2023-11-22T00:37:43;8.07;;;5.87;;
68888;SDS011;55930;47.412;8.790;2023-11-22T00:41:06;13.33;;;6.93;;
68888;SDS011;55930;47.412;8.790;2023-11-22T00:44:27;8.02;;;6.07;;
68888;SDS011;55930;47.412;8.790;2023-11-22T00:47:47;8.33;;;6.40;;
68888;SDS011;55930;47.412;8.790;2023-11-22T00:51:08;7.83;;;5.70;;
68888;SDS011;55930;47.412;8.790;2023-11-22T00:54:31;7.68;;;6.05;;
68888;SDS011;55930;47.412;8.790;2023-11-22T00:57:51;7.07;;;5.93;;
68888;SDS011;55930;47.412;8.790;2023-11-22T01:01:11;8.67;;;6.30;;
68888;SDS011;55930;47.412;8.790;2023-11-22T01:04:32;10.67;;;6.30;;
68888;SDS011;55930;47.412;8.790;2023-11-22T01:07:55;9.48;;;6.13;;
68888;SDS011;55930;47.412;8.790;2023-11-22T01:11:16;8.97;;;6.87;;
68888;SDS011;55930;47.412;8.790;2023-11-22T01:14:37;8.80;;;6.10;;
68888;SDS011;55930;47.412;8.790;2023-11-22T01:17:57;8.67;;;6.13;;
68888;SDS011;55930;47.412;8.790;2023-11-22T01:21:18;10.50;;;6.60;;
68888;SDS011;55930;47.412;8.790;2023-11-22T01:24:39;7.82;;;6.28;;
68888;SDS011;55930;47.412;8.790;2023-11-22T01:28:00;9.57;;;6.67;;
68888;SDS011;55930;47.412;8.790;2023-11-22T01:31:20;8.53;;;6.37;;
68888;SDS011;55930;47.412;8.790;2023-11-22T01:34:42;9.05;;;6.25;;
68888;SDS011;55930;47.412;8.790;2023-11-22T01:38:02;7.90;;;6.33;;
68888;SDS011;55930;47.412;8.790;2023-11-22T01:41:24;10.45;;;6.72;;
68888;SDS011;55930;47.412;8.790;2023-11-22T01:44:44;9.60;;;6.57;;
68888;SDS011;55930;47.412;8.790;2023-11-22T01:48:05;9.47;;;6.93;;
68888;SDS011;55930;47.412;8.790;2023-11-22T01:51:25;10.38;;;6.65;;
68888;SDS011;55930;47.412;8.790;2023-11-22T01:54:47;11.43;;;7.20;;
68888;SDS011;55930;47.412;8.790;2023-11-22T01:58:10;11.27;;;7.10;;
68888;SDS011;55930;47.412;8.790;2023-11-22T02:01:31;9.55;;;7.90;;
68888;SDS011;55930;47.412;8.790;2023-11-22T02:04:51;9.00;;;6.93;;
68888;SDS011;55930;47.412;8.790;2023-11-22T02:08:12;11.80;;;8.50;;
68888;SDS011;55930;47.412;8.790;2023-11-22T02:11:35;9.45;;;7.47;;
68888;SDS011;55930;47.412;8.790;2023-11-22T02:14:55;9.60;;;7.73;;
68888;SDS011;55930;47.412;8.790;2023-11-22T02:18:16;12.60;;;9.17;;
68888;SDS011;55930;47.412;8.790;2023-11-22T02:21:36;12.47;;;8.87;;
68888;SDS011;55930;47.412;8.790;2023-11-22T02:24:56;14.77;;;9.00;;
68888;SDS011;55930;47.412;8.790;2023-11-22T02:28:17;12.83;;;9.37;;
68888;SDS011;55930;47.412;8.790;2023-11-22T02:31:41;13.40;;;9.35;;
68888;SDS011;55930;47.412;8.790;2023-11-22T02:35:03;12.07;;;8.93;;
68888;SDS011;55930;47.412;8.790;2023-11-22T02:38:27;11.93;;;9.32;;
68888;SDS011;55930;47.412;8.790;2023-11-22T02:41:51;13.52;;;9.63;;
68888;SDS011;55930;47.412;8.790;2023-11-22T02:45:11;12.43;;;9.20;;
68888;SDS011;55930;47.412;8.790;2023-11-22T02:48:32;12.48;;;9.73;;
68888;SDS011;55930;47.412;8.790;2023-11-22T02:51:53;13.93;;;9.38;;
68888;SDS011;55930;47.412;8.790;2023-11-22T02:55:13;13.20;;;9.47;;
68888;SDS011;55930;47.412;8.790;2023-11-22T02:58:34;11.60;;;9.30;;
68888;SDS011;55930;47.412;8.790;2023-11-22T03:01:55;17.77;;;9.73;;
68888;SDS011;55930;47.412;8.790;2023-11-22T03:08:39;12.68;;;8.73;;
68888;SDS011;55930;47.412;8.790;2023-11-22T03:12:02;14.73;;;9.02;;
68888;SDS011;55930;47.412;8.790;2023-11-22T03:15:23;15.05;;;10.25;;
68888;SDS011;55930;47.412;8.790;2023-11-22T03:18:44;12.10;;;10.03;;
68888;SDS011;55930;47.412;8.790;2023-11-22T03:22:05;11.43;;;8.75;;
68888;SDS011;55930;47.412;8.790;2023-11-22T03:28:46;12.37;;;9.50;;
68888;SDS011;55930;47.412;8.790;2023-11-22T03:32:07;10.00;;;8.43;;
68888;SDS011;55930;47.412;8.790;2023-11-22T03:35:28;12.80;;;10.67;;
68888;SDS011;55930;47.412;8.790;2023-11-22T03:38:49;13.10;;;9.73;;
68888;SDS011;55930;47.412;8.790;2023-11-22T03:42:09;12.83;;;9.63;;
68888;SDS011;55930;47.412;8.790;2023-11-22T03:45:30;14.03;;;10.20;;
68888;SDS011;55930;47.412;8.790;2023-11-22T03:48:50;15.57;;;10.60;;
68888;SDS011;55930;47.412;8.790;2023-11-22T03:52:11;13.17;;;10.67;;
68888;SDS011;55930;47.412;8.790;2023-11-22T03:55:34;15.73;;;11.15;;
68888;SDS011;55930;47.412;8.790;2023-11-22T03:58:55;14.03;;;11.30;;
68888;SDS011;55930;47.412;8.790;2023-11-22T04:02:15;15.30;;;11.00;;
68888;SDS011;55930;47.412;8.790;2023-11-22T04:05:38;14.23;;;11.23;;
68888;SDS011;55930;47.412;8.790;2023-11-22T04:08:59;14.10;;;9.97;;
68888;SDS011;55930;47.412;8.790;2023-11-22T04:12:19;13.10;;;10.03;;
68888;SDS011;55930;47.412;8.790;2023-11-22T04:15:39;14.37;;;10.10;;
68888;SDS011;55930;47.412;8.790;2023-11-22T04:19:04;14.07;;;9.75;;
68888;SDS011;55930;47.412;8.790;2023-11-22T04:22:25;14.02;;;11.00;;
68888;SDS011;55930;47.412;8.790;2023-11-22T04:25:47;14.90;;;10.00;;
68888;SDS011;55930;47.412;8.790;2023-11-22T04:29:09;14.65;;;10.98;;
68888;SDS011;55930;47.412;8.790;2023-11-22T04:32:30;14.43;;;10.20;;
68888;SDS011;55930;47.412;8.790;2023-11-22T04:35:53;15.48;;;11.88;;
68888;SDS011;55930;47.412;8.790;2023-11-22T04:39:14;14.10;;;10.05;;
68888;SDS011;55930;47.412;8.790;2023-11-22T04:42:35;11.87;;;9.77;;
68888;SDS011;55930;47.412;8.790;2023-11-22T04:45:56;13.05;;;9.15;;
68888;SDS011;55930;47.412;8.790;2023-11-22T04:49:18;16.17;;;10.23;;
68888;SDS011;55930;47.412;8.790;2023-11-22T04:52:38;13.63;;;8.90;;
68888;SDS011;55930;47.412;8.790;2023-11-22T04:56:01;12.93;;;8.95;;
68888;SDS011;55930;47.412;8.790;2023-11-22T04:59:25;10.55;;;8.48;;
68888;SDS011;55930;47.412;8.790;2023-11-22T05:02:45;12.33;;;9.13;;
68888;SDS011;55930;47.412;8.790;2023-11-22T05:06:06;13.00;;;8.63;;
68888;SDS011;55930;47.412;8.790;2023-11-22T05:09:27;11.00;;;8.35;;
68888;SDS011;55930;47.412;8.790;2023-11-22T05:12:47;10.40;;;8.40;;
68888;SDS011;55930;47.412;8.790;2023-11-22T05:16:08;12.80;;;8.53;;
68888;SDS011;55930;47.412;8.790;2023-11-22T05:19:29;11.18;;;8.45;;
68888;SDS011;55930;47.412;8.790;2023-11-22T05:22:50;9.73;;;8.10;;
68888;SDS011;55930;47.412;8.790;2023-11-22T05:26:10;13.23;;;7.97;;
68888;SDS011;55930;47.412;8.790;2023-11-22T05:29:31;12.63;;;8.87;;
68888;SDS011;55930;47.412;8.790;2023-11-22T05:32:51;10.50;;;7.60;;
68888;SDS011;55930;47.412;8.790;2023-11-22T05:36:12;11.52;;;7.50;;
68888;SDS011;55930;47.412;8.790;2023-11-22T05:39:34;10.57;;;6.57;;
68888;SDS011;55930;47.412;8.790;2023-11-22T05:42:54;8.50;;;6.10;;
68888;SDS011;55930;47.412;8.790;2023-11-22T05:46:15;7.60;;;5.60;;
68888;SDS011;55930;47.412;8.790;2023-11-22T05:49:41;7.40;;;5.45;;
68888;SDS011;55930;47.412;8.790;2023-11-22T05:53:01;6.93;;;4.83;;
68888;SDS011;55930;47.412;8.790;2023-11-22T05:56:24;7.22;;;5.13;;
68888;SDS011;55930;47.412;8.790;2023-11-22T05:59:45;5.70;;;4.43;;
68888;SDS011;55930;47.412;8.790;2023-11-22T06:03:06;6.05;;;3.80;;
68888;SDS011;55930;47.412;8.790;2023-11-22T06:06:27;7.60;;;3.37;;
68888;SDS011;55930;47.412;8.790;2023-11-22T06:09:47;6.40;;;4.20;;
68888;SDS011;55930;47.412;8.790;2023-11-22T06:13:07;7.03;;;4.10;;
68888;SDS011;55930;47.412;8.790;2023-11-22T06:16:28;6.30;;;4.47;;
68888;SDS011;55930;47.412;8.790;2023-11-22T06:19:49;5.27;;;3.37;;
68888;SDS011;55930;47.412;8.790;2023-11-22T06:23:09;6.70;;;3.73;;
68888;SDS011;55930;47.412;8.790;2023-11-22T06:26:30;6.10;;;4.27;;
68888;SDS011;55930;47.412;8.790;2023-11-22T06:29:50;4.53;;;3.30;;
68888;SDS011;55930;47.412;8.790;2023-11-22T06:33:11;3.85;;;3.20;;
68888;SDS011;55930;47.412;8.790;2023-11-22T06:36:31;4.83;;;3.00;;
68888;SDS011;55930;47.412;8.790;2023-11-22T06:39:52;4.97;;;3.53;;
68888;SDS011;55930;47.412;8.790;2023-11-22T06:43:13;4.67;;;2.93;;
68888;SDS011;55930;47.412;8.790;2023-11-22T06:46:33;4.40;;;3.30;;
68888;SDS011;55930;47.412;8.790;2023-11-22T06:49:54;3.80;;;2.90;;
68888;SDS011;55930;47.412;8.790;2023-11-22T06:53:19;3.72;;;2.60;;
68888;SDS011;55930;47.412;8.790;2023-11-22T06:56:41;6.18;;;1.98;;
68888;SDS011;55930;47.412;8.790;2023-11-22T07:00:02;3.43;;;2.20;;
68888;SDS011;55930;47.412;8.790;2023-11-22T07:03:25;2.92;;;2.05;;
68888;SDS011;55930;47.412;8.790;2023-11-22T07:06:45;3.67;;;1.90;;
68888;SDS011;55930;47.412;8.790;2023-11-22T07:10:06;3.07;;;2.10;;
68888;SDS011;55930;47.412;8.790;2023-11-22T07:13:31;3.28;;;2.20;;
68888;SDS011;55930;47.412;8.790;2023-11-22T07:16:51;2.83;;;2.17;;
68888;SDS011;55930;47.412;8.790;2023-11-22T07:20:12;2.47;;;1.70;;
68888;SDS011;55930;47.412;8.790;2023-11-22T07:23:36;2.08;;;1.83;;
68888;SDS011;55930;47.412;8.790;2023-11-22T07:26:59;4.10;;;1.95;;
68888;SDS011;55930;47.412;8.790;2023-11-22T07:30:22;1.88;;;1.50;;
68888;SDS011;55930;47.412;8.790;2023-11-22T07:33:43;1.80;;;1.23;;
68888;SDS011;55930;47.412;8.790;2023-11-22T07:37:03;1.07;;;0.97;;
68888;SDS011;55930;47.412;8.790;2023-11-22T07:40:24;3.30;;;1.40;;
68888;SDS011;55930;47.412;8.790;2023-11-22T07:43:44;1.97;;;1.40;;
68888;SDS011;55930;47.412;8.790;2023-11-22T07:47:04;3.53;;;1.40;;
68888;SDS011;55930;47.412;8.790;2023-11-22T07:50:28;1.75;;;1.30;;
68888;SDS011;55930;47.412;8.790;2023-11-22T07:53:49;1.53;;;1.43;;
68888;SDS011;55930;47.412;8.790;2023-11-22T07:57:09;1.50;;;1.33;;
68888;SDS011;55930;47.412;8.790;2023-11-22T08:00:30;2.33;;;1.70;;
68888;SDS011;55930;47.412;8.790;2023-11-22T08:03:53;1.60;;;1.40;;
68888;SDS011;55930;47.412;8.790;2023-11-22T08:07:15;2.53;;;1.90;;
68888;SDS011;55930;47.412;8.790;2023-11-22T08:10:37;2.38;;;1.80;;
68888;SDS011;55930;47.412;8.790;2023-11-22T08:13:57;2.80;;;2.03;;
68888;SDS011;55930;47.412;8.790;2023-11-22T08:17:21;2.05;;;1.70;;
68888;SDS011;55930;47.412;8.790;2023-11-22T08:20:42;2.80;;;2.30;;
68888;SDS011;55930;47.412;8.790;2023-11-22T08:24:03;3.10;;;2.80;;
68888;SDS011;55930;47.412;8.790;2023-11-22T08:27:24;4.73;;;2.57;;
68888;SDS011;55930;47.412;8.790;2023-11-22T08:30:44;5.20;;;4.07;;
68888;SDS011;55930;47.412;8.790;2023-11-22T08:34:07;5.70;;;3.40;;
68888;SDS011;55930;47.412;8.790;2023-11-22T08:37:29;5.57;;;4.95;;
68888;SDS011;55930;47.412;8.790;2023-11-22T08:40:49;7.00;;;5.10;;
68888;SDS011;55930;47.412;8.790;2023-11-22T08:44:10;6.60;;;5.07;;
68888;SDS011;55930;47.412;8.790;2023-11-22T08:47:30;6.30;;;5.17;;
68888;SDS011;55930;47.412;8.790;2023-11-22T08:50:51;7.70;;;6.10;;
68888;SDS011;55930;47.412;8.790;2023-11-22T08:54:13;5.32;;;4.50;;
68888;SDS011;55930;47.412;8.790;2023-11-22T08:57:37;5.87;;;5.23;;
68888;SDS011;55930;47.412;8.790;2023-11-22T09:00:57;6.00;;;4.30;;
68888;SDS011;55930;47.412;8.790;2023-11-22T09:04:18;5.10;;;4.03;;
68888;SDS011;55930;47.412;8.790;2023-11-22T09:11:00;4.33;;;3.50;;
68888;SDS011;55930;47.412;8.790;2023-11-22T09:14:20;4.20;;;3.80;;
68888;SDS011;55930;47.412;8.790;2023-11-22T09:17:41;5.30;;;3.77;;
68888;SDS011;55930;47.412;8.790;2023-11-22T09:21:06;4.53;;;3.25;;
68888;SDS011;55930;47.412;8.790;2023-11-22T09:24:28;3.67;;;2.83;;
68888;SDS011;55930;47.412;8.790;2023-11-22T09:27:51;4.70;;;2.70;;
68888;SDS011;55930;47.412;8.790;2023-11-22T09:31:15;2.70;;;2.40;;
68888;SDS011;55930;47.412;8.790;2023-11-22T09:34:40;2.75;;;2.28;;
68888;SDS011;55930;47.412;8.790;2023-11-22T09:38:04;3.20;;;2.50;;
68888;SDS011;55930;47.412;8.790;2023-11-22T09:41:30;2.63;;;2.30;;
68888;SDS011;55930;47.412;8.790;2023-11-22T09:44:50;2.50;;;2.30;;
68888;SDS011;55930;47.412;8.790;2023-11-22T09:48:20;3.27;;;2.50;;
68888;SDS011;55930;47.412;8.790;2023-11-22T09:51:43;2.55;;;2.20;;
68888;SDS011;55930;47.412;8.790;2023-11-22T09:55:04;2.80;;;2.17;;
68888;SDS011;55930;47.412;8.790;2023-11-22T09:58:25;3.20;;;2.10;;
68888;SDS011;55930;47.412;8.790;2023-11-22T10:01:47;3.13;;;2.65;;
68888;SDS011;55930;47.412;8.790;2023-11-22T10:05:08;3.40;;;2.30;;
68888;SDS011;55930;47.412;8.790;2023-11-22T10:08:29;2.80;;;2.33;;
68888;SDS011;55930;47.412;8.790;2023-11-22T10:11:50;4.37;;;2.27;;
68888;SDS011;55930;47.412;8.790;2023-11-22T10:15:13;2.93;;;2.33;;
68888;SDS011;55930;47.412;8.790;2023-11-22T10:18:39;3.10;;;2.25;;
68888;SDS011;55930;47.412;8.790;2023-11-22T10:22:04;3.13;;;2.20;;
68888;SDS011;55930;47.412;8.790;2023-11-22T10:25:26;2.88;;;2.00;;
68888;SDS011;55930;47.412;8.790;2023-11-22T10:28:52;3.17;;;2.25;;
68888;SDS011;55930;47.412;8.790;2023-11-22T10:32:13;1.77;;;1.65;;
68888;SDS011;55930;47.412;8.790;2023-11-22T10:35:35;4.57;;;1.90;;
68888;SDS011;55930;47.412;8.790;2023-11-22T10:38:56;2.27;;;1.93;;
68888;SDS011;55930;47.412;8.790;2023-11-22T10:42:17;3.67;;;1.92;;
68888;SDS011;55930;47.412;8.790;2023-11-22T10:45:40;2.67;;;2.00;;
68888;SDS011;55930;47.412;8.790;2023-11-22T10:49:04;2.28;;;1.73;;
68888;SDS011;55930;47.412;8.790;2023-11-22T10:52:26;2.30;;;1.90;;
68888;SDS011;55930;47.412;8.790;2023-11-22T10:55:47;3.10;;;2.45;;
68888;SDS011;55930;47.412;8.790;2023-11-22T10:59:17;2.97;;;2.38;;
68888;SDS011;55930;47.412;8.790;2023-11-22T11:02:45;2.67;;;2.08;;
68888;SDS011;55930;47.412;8.790;2023-11-22T11:06:10;3.65;;;1.95;;
68888;SDS011;55930;47.412;8.790;2023-11-22T11:09:33;6.00;;;3.95;;
68888;SDS011;55930;47.412;8.790;2023-11-22T11:16:15;3.40;;;2.67;;
68888;SDS011;55930;47.412;8.790;2023-11-22T11:19:36;3.67;;;2.40;;
68888;SDS011;55930;47.412;8.790;2023-11-22T11:23:00;4.82;;;3.17;;
68888;SDS011;55930;47.412;8.790;2023-11-22T11:26:23;3.45;;;2.50;;
68888;SDS011;55930;47.412;8.790;2023-11-22T11:29:45;4.30;;;3.22;;
68888;SDS011;55930;47.412;8.790;2023-11-22T11:33:07;3.97;;;3.17;;
68888;SDS011;55930;47.412;8.790;2023-11-22T11:36:28;5.57;;;3.20;;
68888;SDS011;55930;47.412;8.790;2023-11-22T11:39:51;3.80;;;3.00;;
68888;SDS011;55930;47.412;8.790;2023-11-22T11:43:14;5.07;;;3.42;;
68888;SDS011;55930;47.412;8.790;2023-11-22T11:46:36;4.40;;;3.23;;
68888;SDS011;55930;47.412;8.790;2023-11-22T11:49:58;4.03;;;2.97;;
68888;SDS011;55930;47.412;8.790;2023-11-22T11:53:19;4.70;;;3.38;;
68888;SDS011;55930;47.412;8.790;2023-11-22T11:56:40;5.10;;;3.13;;
68888;SDS011;55930;47.412;8.790;2023-11-22T12:00:00;5.90;;;3.70;;
68888;SDS011;55930;47.412;8.790;2023-11-22T12:03:24;7.68;;;3.78;;
68888;SDS011;55930;47.412;8.790;2023-11-22T12:06:44;5.23;;;3.27;;
68888;SDS011;55930;47.412;8.790;2023-11-22T12:10:07;6.22;;;3.95;;
68888;SDS011;55930;47.412;8.790;2023-11-22T12:13:28;4.28;;;3.55;;
68888;SDS011;55930;47.412;8.790;2023-11-22T12:16:52;5.23;;;3.70;;
68888;SDS011;55930;47.412;8.790;2023-11-22T12:20:15;6.28;;;4.10;;
68888;SDS011;55930;47.412;8.790;2023-11-22T12:23:37;4.68;;;3.92;;
68888;SDS011;55930;47.412;8.790;2023-11-22T12:27:00;5.05;;;3.55;;
68888;SDS011;55930;47.412;8.790;2023-11-22T12:30:28;4.60;;;3.57;;
68888;SDS011;55930;47.412;8.790;2023-11-22T12:33:52;4.95;;;3.33;;
68888;SDS011;55930;47.412;8.790;2023-11-22T12:37:12;4.40;;;3.40;;
68888;SDS011;55930;47.412;8.790;2023-11-22T12:40:33;4.37;;;3.63;;
68888;SDS011;55930;47.412;8.790;2023-11-22T12:44:06;5.70;;;4.20;;
68888;SDS011;55930;47.412;8.790;2023-11-22T12:47:30;4.30;;;3.25;;
68888;SDS011;55930;47.412;8.790;2023-11-22T12:50:56;4.43;;;3.83;;
68888;SDS011;55930;47.412;8.790;2023-11-22T12:54:17;5.45;;;3.55;;
68888;SDS011;55930;47.412;8.790;2023-11-22T12:57:41;4.50;;;3.70;;
68888;SDS011;55930;47.412;8.790;2023-11-22T13:01:04;5.60;;;3.97;;
68888;SDS011;55930;47.412;8.790;2023-11-22T13:04:27;4.93;;;4.10;;
68888;SDS011;55930;47.412;8.790;2023-11-22T13:07:48;4.20;;;3.40;;
68888;SDS011;55930;47.412;8.790;2023-11-22T13:11:11;4.82;;;3.88;;
68888;SDS011;55930;47.412;8.790;2023-11-22T13:14:31;7.13;;;4.50;;
68888;SDS011;55930;47.412;8.790;2023-11-22T13:17:57;5.47;;;4.38;;
68888;SDS011;55930;47.412;8.790;2023-11-22T13:21:18;5.10;;;4.40;;
68888;SDS011;55930;47.412;8.790;2023-11-22T13:24:39;5.53;;;4.63;;
68888;SDS011;55930;47.412;8.790;2023-11-22T13:27:59;5.70;;;4.30;;
68888;SDS011;55930;47.412;8.790;2023-11-22T13:31:20;5.90;;;3.90;;
68888;SDS011;55930;47.412;8.790;2023-11-22T13:38:03;5.07;;;4.00;;
68888;SDS011;55930;47.412;8.790;2023-11-22T13:41:27;5.47;;;4.28;;
68888;SDS011;55930;47.412;8.790;2023-11-22T13:44:47;6.50;;;4.20;;
68888;SDS011;55930;47.412;8.790;2023-11-22T13:48:08;6.07;;;4.82;;
68888;SDS011;55930;47.412;8.790;2023-11-22T13:51:31;5.80;;;4.35;;
68888;SDS011;55930;47.412;8.790;2023-11-22T13:54:52;5.63;;;4.80;;
68888;SDS011;55930;47.412;8.790;2023-11-22T13:58:16;5.25;;;4.38;;
68888;SDS011;55930;47.412;8.790;2023-11-22T14:01:36;5.53;;;4.60;;
68888;SDS011;55930;47.412;8.790;2023-11-22T14:04:59;5.00;;;4.28;;
68888;SDS011;55930;47.412;8.790;2023-11-22T14:11:41;5.10;;;4.40;;
68888;SDS011;55930;47.412;8.790;2023-11-22T14:15:02;4.73;;;4.20;;
68888;SDS011;55930;47.412;8.790;2023-11-22T14:18:26;5.70;;;4.65;;
68888;SDS011;55930;47.412;8.790;2023-11-22T14:21:46;5.73;;;4.90;;
68888;SDS011;55930;47.412;8.790;2023-11-22T14:25:07;5.67;;;4.70;;
68888;SDS011;55930;47.412;8.790;2023-11-22T14:28:31;6.80;;;5.20;;
68888;SDS011;55930;47.412;8.790;2023-11-22T14:31:51;9.37;;;5.47;;
68888;SDS011;55930;47.412;8.790;2023-11-22T14:35:11;7.50;;;5.57;;
68888;SDS011;55930;47.412;8.790;2023-11-22T14:38:32;6.70;;;5.27;;
68888;SDS011;55930;47.412;8.790;2023-11-22T14:41:55;8.93;;;6.63;;
68888;SDS011;55930;47.412;8.790;2023-11-22T14:45:15;8.30;;;5.97;;
68888;SDS011;55930;47.412;8.790;2023-11-22T14:48:36;8.93;;;5.87;;
68888;SDS011;55930;47.412;8.790;2023-11-22T14:55:18;8.80;;;5.97;;
68888;SDS011;55930;47.412;8.790;2023-11-22T14:58:40;11.35;;;6.55;;
68888;SDS011;55930;47.412;8.790;2023-11-22T15:02:01;9.43;;;6.07;;
68888;SDS011;55930;47.412;8.790;2023-11-22T15:05:24;9.07;;;6.47;;
68888;SDS011;55930;47.412;8.790;2023-11-22T15:08:49;8.32;;;7.00;;
68888;SDS011;55930;47.412;8.790;2023-11-22T15:12:10;9.23;;;7.03;;
68888;SDS011;55930;47.412;8.790;2023-11-22T15:15:31;8.03;;;6.53;;
68888;SDS011;55930;47.412;8.790;2023-11-22T15:18:51;10.00;;;7.27;;
68888;SDS011;55930;47.412;8.790;2023-11-22T15:22:12;8.63;;;6.87;;
68888;SDS011;55930;47.412;8.790;2023-11-22T15:25:34;12.70;;;7.75;;
68888;SDS011;55930;47.412;8.790;2023-11-22T15:28:59;8.65;;;7.10;;
68888;SDS011;55930;47.412;8.790;2023-11-22T15:32:20;7.77;;;6.47;;
68888;SDS011;55930;47.412;8.790;2023-11-22T15:35:40;11.10;;;7.50;;
68888;SDS011;55930;47.412;8.790;2023-11-22T15:39:01;10.60;;;8.07;;
68888;SDS011;55930;47.412;8.790;2023-11-22T15:42:22;9.27;;;7.68;;
68888;SDS011;55930;47.412;8.790;2023-11-22T15:45:43;11.53;;;7.40;;
68888;SDS011;55930;47.412;8.790;2023-11-22T15:49:05;9.97;;;7.10;;
68888;SDS011;55930;47.412;8.790;2023-11-22T15:52:26;12.90;;;8.10;;
68888;SDS011;55930;47.412;8.790;2023-11-22T15:55:48;8.13;;;7.05;;
68888;SDS011;55930;47.412;8.790;2023-11-22T15:59:08;8.87;;;7.00;;
68888;SDS011;55930;47.412;8.790;2023-11-22T16:02:29;8.97;;;7.40;;
68888;SDS011;55930;47.412;8.790;2023-11-22T16:05:49;9.70;;;7.67;;
68888;SDS011;55930;47.412;8.790;2023-11-22T16:09:12;8.43;;;7.05;;
68888;SDS011;55930;47.412;8.790;2023-11-22T16:12:34;8.10;;;7.15;;
68888;SDS011;55930;47.412;8.790;2023-11-22T16:15:57;11.23;;;7.75;;
68888;SDS011;55930;47.412;8.790;2023-11-22T16:19:19;8.05;;;6.95;;
68888;SDS011;55930;47.412;8.790;2023-11-22T16:22:40;10.27;;;8.07;;
68888;SDS011;55930;47.412;8.790;2023-11-22T16:26:07;10.15;;;7.55;;
68888;SDS011;55930;47.412;8.790;2023-11-22T16:29:29;8.90;;;7.07;;
68888;SDS011;55930;47.412;8.790;2023-11-22T16:32:50;9.33;;;6.17;;
68888;SDS011;55930;47.412;8.790;2023-11-22T16:36:11;9.77;;;6.73;;
68888;SDS011;55930;47.412;8.790;2023-11-22T16:39:33;10.00;;;7.30;;
68888;SDS011;55930;47.412;8.790;2023-11-22T16:42:55;10.15;;;7.57;;
68888;SDS011;55930;47.412;8.790;2023-11-22T16:46:15;10.90;;;7.50;;
68888;SDS011;55930;47.412;8.790;2023-11-22T16:49:42;10.80;;;7.30;;
68888;SDS011;55930;47.412;8.790;2023-11-22T16:53:05;10.90;;;8.50;;
68888;SDS011;55930;47.412;8.790;2023-11-22T16:56:26;10.25;;;7.80;;
68888;SDS011;55930;47.412;8.790;2023-11-22T16:59:49;9.80;;;7.90;;
68888;SDS011;55930;47.412;8.790;2023-11-22T17:03:13;10.70;;;7.57;;
68888;SDS011;55930;47.412;8.790;2023-11-22T17:06:33;9.85;;;6.95;;
68888;SDS011;55930;47.412;8.790;2023-11-22T17:09:53;11.07;;;7.60;;
68888;SDS011;55930;47.412;8.790;2023-11-22T17:13:14;9.97;;;8.00;;
68888;SDS011;55930;47.412;8.790;2023-11-22T17:16:35;9.35;;;7.38;;
68888;SDS011;55930;47.412;8.790;2023-11-22T17:19:55;9.07;;;6.93;;
68888;SDS011;55930;47.412;8.790;2023-11-22T17:23:16;8.83;;;6.93;;
68888;SDS011;55930;47.412;8.790;2023-11-22T17:26:38;10.18;;;7.47;;
68888;SDS011;55930;47.412;8.790;2023-11-22T17:29:59;9.40;;;7.17;;
68888;SDS011;55930;47.412;8.790;2023-11-22T17:33:21;9.23;;;7.65;;
68888;SDS011;55930;47.412;8.790;2023-11-22T17:36:42;9.77;;;8.33;;
68888;SDS011;55930;47.412;8.790;2023-11-22T17:40:02;13.50;;;8.20;;
68888;SDS011;55930;47.412;8.790;2023-11-22T17:43:24;12.00;;;9.05;;
68888;SDS011;55930;47.412;8.790;2023-11-22T17:46:45;11.10;;;8.73;;
68888;SDS011;55930;47.412;8.790;2023-11-22T17:50:05;12.03;;;8.97;;
68888;SDS011;55930;47.412;8.790;2023-11-22T17:53:27;11.80;;;8.50;;
68888;SDS011;55930;47.412;8.790;2023-11-22T17:56:48;11.17;;;8.93;;
68888;SDS011;55930;47.412;8.790;2023-11-22T18:00:11;11.20;;;9.03;;
68888;SDS011;55930;47.412;8.790;2023-11-22T18:03:32;10.52;;;8.32;;
68888;SDS011;55930;47.412;8.790;2023-11-22T18:06:54;11.10;;;8.65;;
68888;SDS011;55930;47.412;8.790;2023-11-22T18:10:16;11.35;;;8.38;;
68888;SDS011;55930;47.412;8.790;2023-11-22T18:13:39;13.98;;;9.35;;
68888;SDS011;55930;47.412;8.790;2023-11-22T18:17:04;11.35;;;8.77;;
68888;SDS011;55930;47.412;8.790;2023-11-22T18:20:24;11.07;;;8.90;;
68888;SDS011;55930;47.412;8.790;2023-11-22T18:23:49;13.30;;;9.68;;
68888;SDS011;55930;47.412;8.790;2023-11-22T18:27:10;13.27;;;10.47;;
68888;SDS011;55930;47.412;8.790;2023-11-22T18:30:31;12.50;;;9.47;;
68888;SDS011;55930;47.412;8.790;2023-11-22T18:33:52;11.82;;;9.65;;
68888;SDS011;55930;47.412;8.790;2023-11-22T18:37:12;12.07;;;9.80;;
68888;SDS011;55930;47.412;8.790;2023-11-22T18:40:32;11.33;;;9.87;;
68888;SDS011;55930;47.412;8.790;2023-11-22T18:43:55;12.85;;;9.82;;
68888;SDS011;55930;47.412;8.790;2023-11-22T18:47:16;12.10;;;10.03;;
68888;SDS011;55930;47.412;8.790;2023-11-22T18:50:37;12.85;;;9.52;;
68888;SDS011;55930;47.412;8.790;2023-11-22T18:53:58;12.70;;;10.10;;
68888;SDS011;55930;47.412;8.790;2023-11-22T18:57:21;13.13;;;10.50;;
68888;SDS011;55930;47.412;8.790;2023-11-22T19:00:42;13.80;;;10.13;;
68888;SDS011;55930;47.412;8.790;2023-11-22T19:04:02;13.93;;;10.70;;
68888;SDS011;55930;47.412;8.790;2023-11-22T19:07:23;15.13;;;11.23;;
68888;SDS011;55930;47.412;8.790;2023-11-22T19:10:44;13.87;;;11.27;;
68888;SDS011;55930;47.412;8.790;2023-11-22T19:14:07;12.90;;;11.07;;
68888;SDS011;55930;47.412;8.790;2023-11-22T19:17:28;13.00;;;11.23;;
68888;SDS011;55930;47.412;8.790;2023-11-22T19:20:48;14.13;;;11.10;;
68888;SDS011;55930;47.412;8.790;2023-11-22T19:24:11;13.45;;;10.90;;
68888;SDS011;55930;47.412;8.790;2023-11-22T19:27:32;12.13;;;10.73;;
68888;SDS011;55930;47.412;8.790;2023-11-22T19:30:54;16.98;;;12.35;;
68888;SDS011;55930;47.412;8.790;2023-11-22T19:34:15;15.33;;;12.27;;
68888;SDS011;55930;47.412;8.790;2023-11-22T19:37:35;12.80;;;10.47;;
68888;SDS011;55930;47.412;8.790;2023-11-22T19:40:58;15.00;;;10.93;;
68888;SDS011;55930;47.412;8.790;2023-11-22T19:44:19;15.68;;;11.85;;
68888;SDS011;55930;47.412;8.790;2023-11-22T19:47:42;15.02;;;11.98;;
68888;SDS011;55930;47.412;8.790;2023-11-22T19:51:04;15.90;;;11.82;;
68888;SDS011;55930;47.412;8.790;2023-11-22T19:54:24;14.13;;;11.47;;
68888;SDS011;55930;47.412;8.790;2023-11-22T19:57:45;17.33;;;11.33;;
68888;SDS011;55930;47.412;8.790;2023-11-22T20:01:05;14.87;;;11.87;;
68888;SDS011;55930;47.412;8.790;2023-11-22T20:04:25;15.10;;;12.00;;
68888;SDS011;55930;47.412;8.790;2023-11-22T20:07:47;14.05;;;11.18;;
68888;SDS011;55930;47.412;8.790;2023-11-22T20:11:12;15.90;;;11.88;;
68888;SDS011;55930;47.412;8.790;2023-11-22T20:14:35;16.17;;;11.90;;
68888;SDS011;55930;47.412;8.790;2023-11-22T20:17:55;14.30;;;11.03;;
68888;SDS011;55930;47.412;8.790;2023-11-22T20:21:18;13.85;;;10.75;;
68888;SDS011;55930;47.412;8.790;2023-11-22T20:24:39;13.90;;;10.98;;
68888;SDS011;55930;47.412;8.790;2023-11-22T20:28:05;14.27;;;11.00;;